Time;durP1;ratioP1;P1;durP2;ratioP2;P2;SDS_P1;SDS_P2;PMS_P1;PMS_P2;Temp;Humidity;BMP_temperature;BMP_pressure;BME280_temperature;BME280_humidity;BME280_pressure;Samples;Min_cycle;Max_cycle;Signal;HPM_P1;HPM_P2
2022/11/09 00:02:04;;;;;;;1.80;1.70;;;12.50;99.90;;;;;;5213064;28;20189;-49
2022/11/09 00:04:35;;;;;;;1.93;1.80;;;12.50;99.90;;;;;;5228251;28;20225;-49
2022/11/09 00:07:05;;;;;;;2.63;2.43;;;12.30;99.90;;;;;;5225369;28;20430;-48
2022/11/09 00:09:36;;;;;;;2.33;2.23;;;12.30;99.90;;;;;;5211274;28;20190;-49
2022/11/09 00:12:07;;;;;;;2.57;2.43;;;12.30;99.90;;;;;;5210040;28;20218;-49
2022/11/09 00:14:38;;;;;;;4.47;3.20;;;12.20;99.90;;;;;;5214513;28;20242;-50
2022/11/09 00:17:09;;;;;;;1.73;1.63;;;12.10;99.90;;;;;;5213826;28;20529;-47
2022/11/09 00:19:40;;;;;;;2.00;1.90;;;12.20;99.90;;;;;;5213916;28;20175;-49
2022/11/09 00:22:11;;;;;;;6.40;2.53;;;12.10;99.90;;;;;;5213974;28;20203;-49
2022/11/09 00:24:44;;;;;;;2.27;2.20;;;12.10;99.90;;;;;;5226114;28;20183;-47
2022/11/09 00:27:20;;;;;;;11.60;2.30;;;12.10;99.90;;;;;;5229276;28;20510;-49
2022/11/09 00:29:51;;;;;;;1.97;1.97;;;12.20;99.90;;;;;;5231778;28;20454;-49
2022/11/09 00:32:22;;;;;;;1.93;1.80;;;12.30;99.90;;;;;;5231514;28;20436;-48
2022/11/09 00:34:53;;;;;;;1.53;1.43;;;12.20;99.90;;;;;;5206134;28;20215;-47
2022/11/09 00:37:24;;;;;;;1.93;1.83;;;12.20;99.90;;;;;;5228338;28;20467;-49
2022/11/09 00:39:55;;;;;;;2.40;2.20;;;12.10;99.90;;;;;;5225760;28;20179;-47
2022/11/09 00:42:26;;;;;;;2.23;2.13;;;12.10;99.90;;;;;;5225183;28;20195;-48
2022/11/09 00:44:56;;;;;;;4.80;2.17;;;12.10;99.90;;;;;;5195102;28;20421;-48
2022/11/09 00:47:27;;;;;;;4.40;2.60;;;12.20;99.90;;;;;;5228142;28;20293;-49
2022/11/09 00:49:58;;;;;;;2.37;2.17;;;12.20;99.90;;;;;;5196545;28;20187;-48
2022/11/09 00:52:29;;;;;;;2.33;2.23;;;12.40;99.90;;;;;;5217311;28;20210;-48
2022/11/09 00:54:59;;;;;;;2.50;2.20;;;12.30;99.90;;;;;;5215138;28;20212;-49
2022/11/09 00:57:31;;;;;;;2.70;2.43;;;12.40;99.90;;;;;;5223313;28;20221;-49
2022/11/09 01:00:05;;;;;;;1.97;1.87;;;12.30;99.90;;;;;;5222390;28;20517;-49
2022/11/09 01:02:36;;;;;;;2.43;2.27;;;12.20;99.90;;;;;;5210456;28;20437;-48
2022/11/09 01:05:07;;;;;;;4.70;2.43;;;12.30;99.90;;;;;;5210587;28;20490;-49
2022/11/09 01:07:38;;;;;;;4.57;2.10;;;12.20;99.90;;;;;;5220981;28;20179;-48
2022/11/09 01:10:08;;;;;;;2.27;2.17;;;12.30;99.90;;;;;;5220518;28;20186;-48
2022/11/09 01:12:40;;;;;;;1.80;1.70;;;12.30;99.90;;;;;;5221592;28;20835;-48
2022/11/09 01:15:10;;;;;;;2.73;2.53;;;12.20;99.90;;;;;;5210964;28;20194;-48
2022/11/09 01:17:41;;;;;;;1.80;1.70;;;12.00;99.90;;;;;;5231515;28;20477;-47
2022/11/09 01:20:13;;;;;;;3.50;2.00;;;12.00;99.90;;;;;;5208697;28;20716;-49
2022/11/09 01:22:44;;;;;;;3.40;2.60;;;12.00;99.90;;;;;;5224101;28;20207;-48
2022/11/09 01:25:15;;;;;;;1.90;1.80;;;11.90;99.90;;;;;;5218139;28;21032;-47
2022/11/09 01:27:48;;;;;;;2.17;1.93;;;12.00;99.90;;;;;;5212096;28;20182;-47
2022/11/09 01:30:19;;;;;;;5.23;2.00;;;12.00;99.90;;;;;;5209673;28;20954;-49
2022/11/09 01:32:50;;;;;;;2.10;1.97;;;11.90;99.90;;;;;;5212917;28;20449;-49
2022/11/09 01:35:20;;;;;;;4.33;2.40;;;11.80;99.90;;;;;;5212761;28;20179;-48
2022/11/09 01:37:51;;;;;;;2.90;1.43;;;11.70;99.90;;;;;;5223371;28;20627;-47
2022/11/09 01:40:22;;;;;;;2.60;2.50;;;11.70;99.90;;;;;;5226742;28;20209;-47
2022/11/09 01:42:52;;;;;;;3.50;2.23;;;11.60;99.90;;;;;;5222631;28;20214;-47
2022/11/09 01:45:29;;;;;;;4.33;2.70;;;11.60;99.90;;;;;;5207720;28;20194;-48
2022/11/09 01:48:41;;;;;;;2.00;1.60;;;11.60;99.90;;;;;;5222141;28;20281;-49
2022/11/09 01:51:21;;;;;;;3.00;2.70;;;11.50;99.90;;;;;;5207589;28;20456;-48
2022/11/09 01:53:58;;;;;;;5.23;3.07;;;11.60;99.90;;;;;;5206097;28;20475;-49
2022/11/09 01:56:30;;;;;;;3.40;2.90;;;11.50;99.90;;;;;;5224865;28;20928;-48
2022/11/09 01:59:13;;;;;;;3.00;2.80;;;11.60;99.90;;;;;;5200512;28;20562;-48
2022/11/09 02:01:45;;;;;;;4.43;3.40;;;11.60;99.90;;;;;;5212305;28;20433;-48
2022/11/09 02:04:22;;;;;;;3.50;3.20;;;11.60;99.90;;;;;;5207892;28;20461;-51
2022/11/09 02:06:57;;;;;;;1.90;1.80;;;11.50;99.90;;;;;;5211356;28;20815;-47
2022/11/09 02:09:47;;;;;;;7.47;4.53;;;11.70;99.90;;;;;;5211187;28;20437;-48
2022/11/09 02:12:20;;;;;;;3.07;2.87;;;11.80;99.90;;;;;;5209441;28;20519;-47
2022/11/09 02:14:52;;;;;;;2.10;2.00;;;11.60;99.90;;;;;;5226670;28;20845;-48
2022/11/09 02:17:24;;;;;;;2.57;2.37;;;11.50;99.90;;;;;;5211750;28;20437;-49
2022/11/09 02:19:58;;;;;;;2.80;2.70;;;11.50;99.90;;;;;;5207534;28;20438;-48
2022/11/09 02:22:29;;;;;;;2.70;2.47;;;11.20;99.90;;;;;;5208437;28;20548;-48
2022/11/09 02:25:01;;;;;;;3.83;3.17;;;11.40;99.90;;;;;;5223924;28;20533;-49
2022/11/09 02:27:31;;;;;;;2.53;2.43;;;11.30;99.90;;;;;;5227060;28;20180;-48
2022/11/09 02:30:03;;;;;;;5.30;2.20;;;11.20;99.90;;;;;;5229075;28;20931;-48
2022/11/09 02:32:34;;;;;;;2.83;2.00;;;11.20;99.90;;;;;;5211178;28;20210;-47
2022/11/09 02:35:05;;;;;;;3.03;2.57;;;11.20;99.90;;;;;;5224099;28;20467;-48
2022/11/09 02:37:57;;;;;;;2.90;2.80;;;11.10;99.90;;;;;;5216477;28;20180;-50
2022/11/09 02:40:36;;;;;;;3.27;2.97;;;11.20;99.90;;;;;;5215670;28;20180;-47
2022/11/09 02:43:09;;;;;;;3.07;2.23;;;11.10;99.90;;;;;;5221043;28;20480;-48
2022/11/09 02:45:40;;;;;;;2.90;2.43;;;11.20;99.90;;;;;;5225287;28;20500;-47
2022/11/09 02:48:11;;;;;;;3.47;3.17;;;11.30;99.90;;;;;;5206329;28;20433;-48
2022/11/09 02:50:42;;;;;;;2.07;1.90;;;11.20;99.90;;;;;;5220074;28;20431;-48
2022/11/09 02:53:12;;;;;;;3.60;2.90;;;11.20;99.90;;;;;;5204691;28;20229;-48
2022/11/09 02:55:43;;;;;;;2.73;2.53;;;11.30;99.90;;;;;;5211441;28;20191;-47
2022/11/09 02:58:14;;;;;;;2.10;2.00;;;11.40;99.90;;;;;;5210144;28;20175;-49
2022/11/09 03:00:45;;;;;;;2.07;1.93;;;11.30;99.90;;;;;;5225574;28;20191;-49
2022/11/09 03:03:16;;;;;;;3.73;3.20;;;11.30;99.90;;;;;;5228552;28;20230;-48
2022/11/09 03:05:49;;;;;;;4.23;3.27;;;11.30;99.90;;;;;;5207599;28;20202;-49
2022/11/09 03:08:20;;;;;;;2.83;2.63;;;11.30;99.90;;;;;;5204996;28;20235;-48
2022/11/09 03:10:51;;;;;;;3.73;2.33;;;11.30;99.90;;;;;;5227528;28;20913;-48
2022/11/09 03:13:22;;;;;;;1.40;1.40;;;11.20;99.90;;;;;;5206475;28;20338;-48
2022/11/09 03:15:52;;;;;;;4.23;2.50;;;11.20;99.90;;;;;;5223064;28;20195;-48
2022/11/09 03:18:23;;;;;;;2.87;2.03;;;11.40;99.90;;;;;;5203867;28;20643;-47
2022/11/09 03:20:54;;;;;;;2.10;2.00;;;11.50;99.90;;;;;;5229056;28;20183;-48
2022/11/09 03:23:25;;;;;;;1.80;1.60;;;11.40;99.90;;;;;;5211234;28;20218;-48
2022/11/09 03:25:55;;;;;;;1.60;1.50;;;11.40;99.90;;;;;;5222200;28;20248;-48
2022/11/09 03:28:26;;;;;;;3.67;2.57;;;11.40;99.90;;;;;;5208253;28;20254;-49
2022/11/09 03:30:57;;;;;;;2.10;1.90;;;11.40;99.90;;;;;;5219542;28;20198;-48
2022/11/09 03:33:36;;;;;;;3.47;1.87;;;11.30;99.90;;;;;;5209805;28;20237;-49
2022/11/09 03:36:07;;;;;;;3.33;2.50;;;11.40;99.90;;;;;;5226434;28;20655;-48
2022/11/09 03:38:38;;;;;;;4.47;1.80;;;11.40;99.90;;;;;;5221203;28;20433;-48
2022/11/09 03:41:09;;;;;;;1.70;1.70;;;11.50;99.90;;;;;;5210413;28;20482;-48
2022/11/09 03:43:40;;;;;;;2.00;1.83;;;11.80;99.90;;;;;;5207996;28;20217;-48
2022/11/09 03:46:10;;;;;;;2.13;1.93;;;11.80;99.90;;;;;;5202636;28;20187;-49
2022/11/09 03:48:44;;;;;;;2.23;2.03;;;11.80;99.90;;;;;;5189718;28;20776;-49
2022/11/09 03:51:14;;;;;;;2.57;2.37;;;11.80;99.90;;;;;;5211247;28;20265;-49
2022/11/09 03:53:45;;;;;;;3.17;2.40;;;11.70;99.90;;;;;;5210565;28;20537;-48
2022/11/09 03:56:17;;;;;;;2.23;2.13;;;11.80;99.90;;;;;;5210551;28;20187;-47
2022/11/09 03:58:48;;;;;;;11.37;2.40;;;11.70;99.90;;;;;;5227909;28;20539;-48
2022/11/09 04:01:26;;;;;;;4.20;2.80;;;11.60;99.90;;;;;;5203604;28;20442;-49
2022/11/09 04:03:56;;;;;;;3.30;3.00;;;11.70;99.90;;;;;;5223713;28;20207;-49
2022/11/09 04:06:27;;;;;;;6.90;2.70;;;11.80;99.90;;;;;;5223584;28;20433;-49
2022/11/09 04:08:58;;;;;;;3.47;2.13;;;11.80;99.90;;;;;;5210838;28;20560;-49
2022/11/09 04:11:29;;;;;;;3.33;2.17;;;11.90;99.90;;;;;;5215914;28;20663;-48
2022/11/09 04:14:05;;;;;;;2.03;2.03;;;12.00;99.90;;;;;;5207439;28;20622;-48
2022/11/09 04:16:36;;;;;;;2.03;1.90;;;11.80;99.90;;;;;;5200105;28;20217;-47
2022/11/09 04:19:06;;;;;;;8.13;2.33;;;11.80;99.90;;;;;;5218990;28;20465;-48
2022/11/09 04:21:37;;;;;;;1.77;1.50;;;11.90;99.90;;;;;;5210704;28;20187;-47
2022/11/09 04:24:08;;;;;;;1.80;1.67;;;11.90;99.90;;;;;;5213980;28;20256;-47
2022/11/09 04:26:39;;;;;;;3.80;1.80;;;11.90;99.90;;;;;;5230563;28;20781;-47
2022/11/09 04:29:10;;;;;;;1.93;1.87;;;11.80;99.90;;;;;;5230559;28;20653;-47
2022/11/09 04:31:41;;;;;;;1.63;1.53;;;11.70;99.90;;;;;;5225342;28;20596;-47
2022/11/09 04:34:11;;;;;;;1.67;1.57;;;11.70;99.90;;;;;;5210868;28;20208;-47
2022/11/09 04:36:43;;;;;;;1.97;1.87;;;11.80;99.90;;;;;;5216092;28;20229;-46
2022/11/09 04:39:14;;;;;;;1.77;1.67;;;11.70;99.90;;;;;;5216347;28;20179;-48
2022/11/09 04:41:44;;;;;;;1.60;1.60;;;11.70;99.90;;;;;;5230379;28;20839;-48
2022/11/09 04:44:15;;;;;;;5.23;2.37;;;11.80;99.90;;;;;;5214977;28;20571;-46
2022/11/09 04:46:46;;;;;;;1.87;1.87;;;11.80;99.90;;;;;;5214075;28;20183;-47
2022/11/09 04:49:16;;;;;;;1.90;1.67;;;11.90;99.90;;;;;;5211451;28;20188;-47
2022/11/09 04:51:47;;;;;;;2.90;1.87;;;11.90;99.90;;;;;;5209525;28;20175;-48
2022/11/09 04:54:18;;;;;;;4.23;2.50;;;11.70;99.90;;;;;;5231728;28;20214;-48
2022/11/09 04:56:49;;;;;;;1.50;1.40;;;11.70;99.90;;;;;;5220151;28;20547;-48
2022/11/09 04:59:20;;;;;;;3.80;2.23;;;11.70;99.90;;;;;;5213652;28;20183;-48
2022/11/09 05:01:50;;;;;;;1.80;1.70;;;11.70;99.90;;;;;;5215843;28;20183;-47
2022/11/09 05:04:21;;;;;;;1.57;1.57;;;11.80;99.90;;;;;;5211502;28;20187;-49
2022/11/09 05:06:52;;;;;;;2.27;1.40;;;11.80;99.90;;;;;;5212949;28;20347;-47
2022/11/09 05:09:35;;;;;;;4.60;2.03;;;11.80;99.90;;;;;;5211397;28;20237;-47
2022/11/09 05:12:06;;;;;;;2.27;2.17;;;11.80;99.90;;;;;;5226088;28;20191;-47
2022/11/09 05:14:37;;;;;;;5.80;2.10;;;11.90;99.90;;;;;;5213881;28;20462;-47
2022/11/09 05:17:08;;;;;;;2.20;2.10;;;11.80;99.90;;;;;;5213862;28;20437;-48
2022/11/09 05:19:39;;;;;;;4.40;2.30;;;11.90;99.90;;;;;;5214233;28;20191;-49
2022/11/09 05:25:08;;;;;;;4.67;2.70;;;12.10;99.90;;;;;;5227223;28;20187;-46
2022/11/09 05:27:38;;;;;;;2.47;2.33;;;11.80;99.90;;;;;;5226606;28;20430;-50
2022/11/09 05:30:10;;;;;;;5.20;2.27;;;12.00;99.90;;;;;;5227078;28;20760;-48
2022/11/09 05:32:40;;;;;;;3.90;2.40;;;11.80;99.90;;;;;;5220005;28;20206;-50
2022/11/09 05:35:14;;;;;;;2.17;2.00;;;11.80;99.90;;;;;;5211713;28;20469;-47
2022/11/09 05:37:48;;;;;;;2.90;2.43;;;11.80;99.90;;;;;;5227070;28;20258;-47
2022/11/09 05:40:19;;;;;;;2.30;2.10;;;11.80;99.90;;;;;;5210017;28;20438;-48
2022/11/09 05:42:50;;;;;;;2.70;2.50;;;12.00;99.90;;;;;;5195920;28;20434;-49
2022/11/09 05:45:21;;;;;;;2.60;2.47;;;11.90;99.90;;;;;;5221349;28;20784;-50
2022/11/09 05:47:51;;;;;;;2.23;2.13;;;12.00;99.90;;;;;;5213247;28;20197;-48
2022/11/09 05:50:22;;;;;;;3.27;2.40;;;11.90;99.90;;;;;;5229203;28;20187;-47
2022/11/09 05:52:54;;;;;;;6.20;2.20;;;12.00;99.90;;;;;;5212713;28;20211;-48
2022/11/09 05:55:25;;;;;;;2.13;2.00;;;11.90;99.90;;;;;;5210386;28;20179;-47
2022/11/09 05:57:56;;;;;;;2.87;2.60;;;12.00;99.90;;;;;;5227071;28;20428;-46
2022/11/09 06:00:27;;;;;;;2.47;2.37;;;12.00;99.90;;;;;;5210842;28;20417;-47
2022/11/09 06:03:09;;;;;;;2.27;2.07;;;12.10;99.90;;;;;;5212785;28;20246;-48
2022/11/09 06:05:40;;;;;;;2.97;2.77;;;12.00;99.90;;;;;;5218915;28;20438;-48
2022/11/09 06:08:13;;;;;;;2.30;1.83;;;12.20;99.90;;;;;;5214151;28;20990;-47
2022/11/09 06:10:43;;;;;;;3.57;2.47;;;12.10;99.90;;;;;;5229242;28;20441;-47
2022/11/09 06:13:14;;;;;;;2.10;2.00;;;12.20;99.90;;;;;;5210978;28;20470;-48
2022/11/09 06:15:55;;;;;;;2.80;1.60;;;12.30;99.90;;;;;;5238254;28;20183;-45
2022/11/09 06:18:28;;;;;;;3.30;2.17;;;12.20;99.90;;;;;;5230147;28;20264;-47
2022/11/09 06:21:01;;;;;;;6.10;2.87;;;12.10;99.90;;;;;;5225537;28;20456;-46
2022/11/09 06:23:33;;;;;;;2.20;2.10;;;12.10;99.90;;;;;;5200730;28;20457;-47
2022/11/09 06:26:08;;;;;;;3.83;2.23;;;12.20;99.90;;;;;;5212119;28;20444;-47
2022/11/09 06:28:40;;;;;;;4.20;2.77;;;12.10;99.90;;;;;;5226114;28;20429;-49
2022/11/09 06:31:16;;;;;;;5.20;2.90;;;12.30;99.90;;;;;;5228076;28;20495;-46
2022/11/09 06:33:46;;;;;;;2.47;2.37;;;12.30;99.90;;;;;;5197391;28;20472;-49
2022/11/09 06:36:17;;;;;;;3.50;3.20;;;12.30;99.90;;;;;;5186200;28;20442;-48
2022/11/09 06:38:49;;;;;;;2.67;2.47;;;12.30;99.90;;;;;;5204299;28;20179;-47
2022/11/09 06:41:23;;;;;;;2.77;1.93;;;12.20;99.90;;;;;;5229400;28;20182;-48
2022/11/09 06:43:53;;;;;;;3.90;3.57;;;12.20;99.90;;;;;;5192505;28;20520;-47
2022/11/09 06:46:24;;;;;;;3.83;3.53;;;12.30;99.90;;;;;;5225535;28;20434;-47
2022/11/09 06:48:55;;;;;;;3.67;3.47;;;12.30;99.90;;;;;;5213843;28;20183;-50
2022/11/09 06:51:29;;;;;;;3.30;3.10;;;12.30;99.90;;;;;;5216261;28;20238;-47
2022/11/09 06:54:00;;;;;;;4.63;3.80;;;12.20;99.90;;;;;;5207298;28;20233;-49
2022/11/09 06:56:30;;;;;;;6.00;3.80;;;12.20;99.90;;;;;;5221708;28;20441;-48
2022/11/09 06:59:01;;;;;;;2.57;2.40;;;12.20;99.90;;;;;;5211499;28;20205;-48
2022/11/09 07:01:32;;;;;;;14.67;3.13;;;12.10;99.90;;;;;;5207948;28;20236;-49
2022/11/09 07:04:03;;;;;;;17.03;3.30;;;12.00;99.90;;;;;;5223618;28;20225;-48
2022/11/09 07:06:44;;;;;;;8.53;4.67;;;11.90;99.90;;;;;;5220146;28;20179;-47
2022/11/09 07:09:15;;;;;;;5.73;3.63;;;11.90;99.90;;;;;;5228420;28;20484;-47
2022/11/09 07:11:47;;;;;;;3.70;3.50;;;11.70;99.90;;;;;;5211392;28;20484;-47
2022/11/09 07:14:18;;;;;;;5.07;3.33;;;11.60;99.90;;;;;;5212091;28;20309;-48
2022/11/09 07:16:52;;;;;;;10.50;4.27;;;11.50;99.90;;;;;;5222693;28;20434;-48
2022/11/09 07:19:23;;;;;;;5.13;4.63;;;11.40;99.90;;;;;;5223161;28;20187;-52
2022/11/09 07:21:55;;;;;;;6.10;4.43;;;11.50;99.90;;;;;;5211542;28;20421;-47
2022/11/09 07:24:26;;;;;;;5.30;4.10;;;11.50;99.90;;;;;;5209197;28;20447;-47
2022/11/09 07:26:56;;;;;;;10.67;6.60;;;11.40;99.90;;;;;;5227982;28;20520;-47
2022/11/09 07:29:27;;;;;;;9.10;4.87;;;11.20;99.90;;;;;;5222318;28;20182;-49
2022/11/09 07:31:58;;;;;;;5.67;5.10;;;11.30;99.90;;;;;;5216290;28;20180;-47
2022/11/09 07:34:29;;;;;;;3.27;3.07;;;11.20;99.90;;;;;;5221419;28;20195;-47
2022/11/09 07:36:59;;;;;;;5.33;4.80;;;11.00;99.90;;;;;;5212376;28;20422;-47
2022/11/09 07:39:30;;;;;;;3.53;3.23;;;11.00;99.90;;;;;;5229040;28;20179;-48
2022/11/09 07:42:01;;;;;;;13.33;3.90;;;10.90;99.90;;;;;;5211478;28;20423;-48
2022/11/09 07:44:31;;;;;;;4.63;3.83;;;10.80;99.90;;;;;;5211920;28;20194;-48
2022/11/09 07:47:02;;;;;;;8.60;4.80;;;10.60;99.90;;;;;;5211723;28;20565;-47
2022/11/09 07:49:34;;;;;;;11.27;3.83;;;10.60;99.90;;;;;;5211465;28;20270;-48
2022/11/09 07:52:05;;;;;;;4.63;4.20;;;10.70;99.90;;;;;;5230924;28;20241;-48
2022/11/09 07:54:37;;;;;;;7.13;4.83;;;10.60;99.90;;;;;;5222268;28;20553;-47
2022/11/09 07:57:08;;;;;;;6.37;4.17;;;10.70;99.90;;;;;;5220585;28;20429;-51
2022/11/09 07:59:39;;;;;;;15.27;9.67;;;10.80;99.90;;;;;;5208887;28;20441;-48
2022/11/09 08:02:12;;;;;;;21.73;12.47;;;10.80;99.90;;;;;;5219858;28;20746;-51
2022/11/09 08:04:43;;;;;;;14.57;9.40;;;10.90;99.90;;;;;;5212848;28;20183;-51
2022/11/09 08:07:14;;;;;;;20.23;10.40;;;11.00;99.90;;;;;;5206512;28;21012;-50
2022/11/09 08:09:44;;;;;;;17.20;10.90;;;11.00;99.90;;;;;;5213246;28;20236;-51
2022/11/09 08:12:15;;;;;;;20.37;13.87;;;11.10;99.90;;;;;;5212209;28;20629;-51
2022/11/09 08:14:48;;;;;;;27.53;16.80;;;11.10;99.90;;;;;;5212497;28;20562;-51
2022/11/09 08:17:19;;;;;;;20.97;11.00;;;11.00;99.90;;;;;;5226823;28;20256;-48
2022/11/09 08:19:50;;;;;;;11.30;6.70;;;11.10;99.90;;;;;;5211845;28;20426;-48
2022/11/09 08:22:21;;;;;;;9.33;6.80;;;11.20;99.90;;;;;;5219561;28;20245;-48
2022/11/09 08:24:54;;;;;;;8.53;5.20;;;11.30;99.90;;;;;;5227521;28;20183;-47
2022/11/09 08:27:28;;;;;;;4.73;4.30;;;11.30;99.90;;;;;;5231031;28;20534;-49
2022/11/09 08:29:59;;;;;;;8.40;3.60;;;11.30;99.90;;;;;;5217099;28;20761;-49
2022/11/09 08:32:30;;;;;;;5.10;4.70;;;11.20;99.90;;;;;;5217275;28;20455;-47
2022/11/09 08:35:01;;;;;;;7.00;4.00;;;11.10;99.90;;;;;;5216851;28;20199;-47
2022/11/09 08:37:38;;;;;;;5.70;5.17;;;11.10;99.90;;;;;;5212890;28;20621;-49
2022/11/09 08:40:10;;;;;;;6.40;5.40;;;11.30;99.90;;;;;;5214056;28;20492;-47
2022/11/09 08:42:41;;;;;;;20.50;12.23;;;11.30;99.90;;;;;;5226328;28;20445;-48
2022/11/09 08:45:13;;;;;;;17.47;11.00;;;11.20;99.90;;;;;;5214542;28;20433;-49
2022/11/09 08:47:44;;;;;;;12.83;9.27;;;11.30;99.90;;;;;;5224052;28;20800;-47
2022/11/09 08:50:15;;;;;;;13.50;8.80;;;11.20;99.90;;;;;;5211660;28;20826;-48
2022/11/09 08:52:46;;;;;;;13.77;8.80;;;11.10;99.90;;;;;;5211202;28;20488;-48
2022/11/09 08:55:17;;;;;;;7.93;7.00;;;11.20;99.90;;;;;;5233785;28;20206;-48
2022/11/09 08:57:48;;;;;;;9.43;7.60;;;11.20;99.90;;;;;;5195346;28;20180;-49
2022/11/09 09:00:21;;;;;;;10.43;7.23;;;11.20;99.90;;;;;;5224986;28;20210;-49
2022/11/09 09:02:52;;;;;;;9.57;5.90;;;11.10;99.90;;;;;;5226009;28;20456;-49
2022/11/09 09:05:26;;;;;;;18.00;11.30;;;11.20;99.90;;;;;;5208020;28;20438;-46
2022/11/09 09:07:59;;;;;;;21.33;9.03;;;11.20;99.90;;;;;;5227030;28;20444;-48
2022/11/09 09:10:34;;;;;;;12.80;7.10;;;11.20;99.90;;;;;;5209246;28;20546;-49
2022/11/09 09:13:05;;;;;;;14.67;6.90;;;11.20;99.90;;;;;;5206783;28;20529;-48
2022/11/09 09:15:35;;;;;;;10.00;6.80;;;11.10;99.90;;;;;;5230947;28;20945;-49
2022/11/09 09:18:06;;;;;;;7.90;6.03;;;11.30;99.90;;;;;;5221780;28;20183;-48
2022/11/09 09:20:39;;;;;;;9.90;7.33;;;11.40;99.90;;;;;;5227714;28;20179;-50
2022/11/09 09:23:11;;;;;;;12.67;8.20;;;11.50;99.90;;;;;;5210766;28;20562;-49
2022/11/09 09:25:45;;;;;;;9.20;5.70;;;11.60;99.90;;;;;;5218286;28;20475;-48
2022/11/09 09:28:16;;;;;;;7.83;7.10;;;11.90;99.90;;;;;;5210208;28;20493;-48
2022/11/09 09:30:47;;;;;;;14.83;7.47;;;12.20;99.90;;;;;;5222849;28;20516;-48
2022/11/09 09:33:20;;;;;;;9.47;6.20;;;12.40;99.90;;;;;;5219879;28;20210;-48
2022/11/09 09:35:53;;;;;;;10.00;6.23;;;12.50;99.90;;;;;;5219667;28;20184;-48
2022/11/09 09:38:26;;;;;;;7.17;6.30;;;12.70;99.90;;;;;;5209100;28;20938;-48
2022/11/09 09:41:02;;;;;;;5.77;5.20;;;12.90;99.90;;;;;;5205810;28;20449;-48
2022/11/09 09:43:39;;;;;;;10.13;5.37;;;13.00;99.90;;;;;;5196283;28;20449;-48
2022/11/09 09:46:35;;;;;;;5.53;5.10;;;13.20;99.90;;;;;;5209060;28;20421;-47
2022/11/09 09:49:15;;;;;;;5.27;4.07;;;13.20;99.90;;;;;;5229413;28;20425;-48
2022/11/09 09:51:56;;;;;;;8.03;4.10;;;13.20;99.90;;;;;;5194821;28;20797;-49
2022/11/09 09:54:35;;;;;;;9.80;4.97;;;13.10;99.90;;;;;;5224217;28;20579;-47
2022/11/09 09:57:17;;;;;;;5.60;4.20;;;13.10;99.90;;;;;;5217044;28;20795;-51
2022/11/09 09:59:51;;;;;;;7.17;5.20;;;12.90;99.90;;;;;;5217928;28;20453;-48
2022/11/09 10:02:25;;;;;;;6.73;4.63;;;12.80;99.90;;;;;;5211262;28;20449;-48
2022/11/09 10:04:59;;;;;;;3.67;3.07;;;12.90;99.90;;;;;;5218574;28;20465;-47
2022/11/09 10:07:37;;;;;;;3.83;3.43;;;12.80;99.90;;;;;;5211051;28;20429;-47
2022/11/09 10:10:33;;;;;;;6.37;3.70;;;12.70;99.90;;;;;;5228395;28;20425;-48
2022/11/09 10:13:03;;;;;;;12.73;4.03;;;12.80;99.90;;;;;;5209281;28;20469;-52
2022/11/09 10:16:12;;;;;;;6.87;4.10;;;12.90;99.90;;;;;;5222093;28;20421;-52
2022/11/09 10:19:02;;;;;;;6.43;5.17;;;13.00;99.90;;;;;;5177828;28;20218;-52
2022/11/09 10:21:45;;;;;;;4.00;3.53;;;13.10;99.90;;;;;;5226299;28;20445;-52
2022/11/09 10:25:06;;;;;;;7.43;4.10;;;13.30;99.90;;;;;;5222216;28;20541;-54
2022/11/09 10:27:47;;;;;;;4.40;4.00;;;13.40;99.90;;;;;;5183306;28;20445;-50
2022/11/09 10:30:20;;;;;;;3.87;3.50;;;13.20;99.90;;;;;;5220457;28;20506;-52
2022/11/09 10:32:54;;;;;;;3.63;3.33;;;13.20;99.90;;;;;;5206410;28;20485;-49
2022/11/09 10:35:46;;;;;;;4.70;3.90;;;13.20;99.90;;;;;;5206516;28;20461;-51
2022/11/09 10:38:22;;;;;;;3.60;3.10;;;13.10;99.90;;;;;;5220701;28;20445;-51
2022/11/09 10:41:10;;;;;;;4.30;3.77;;;13.20;99.90;;;;;;5225556;28;20417;-51
2022/11/09 10:43:41;;;;;;;6.33;3.87;;;13.40;99.90;;;;;;5204127;28;20453;-51
2022/11/09 10:46:12;;;;;;;3.93;3.37;;;13.40;99.90;;;;;;5206993;28;20960;-51
2022/11/09 10:48:42;;;;;;;3.20;3.10;;;13.60;99.90;;;;;;5209611;28;20179;-52
2022/11/09 10:51:40;;;;;;;3.53;3.33;;;13.70;99.90;;;;;;5209053;28;20187;-52
2022/11/09 10:54:20;;;;;;;3.73;3.37;;;13.90;99.90;;;;;;5209380;28;20213;-52
2022/11/09 10:57:15;;;;;;;3.13;2.87;;;14.00;99.90;;;;;;5220532;28;20469;-51
2022/11/09 10:59:52;;;;;;;4.87;3.60;;;14.10;99.90;;;;;;5215360;28;20457;-51
2022/11/09 11:02:27;;;;;;;3.90;3.50;;;14.30;99.90;;;;;;5224446;28;20449;-52
2022/11/09 11:04:58;;;;;;;3.77;3.47;;;14.10;99.90;;;;;;5212121;28;20425;-53
2022/11/09 11:07:29;;;;;;;4.60;3.37;;;14.10;99.90;;;;;;5208742;28;20433;-52
2022/11/09 11:10:15;;;;;;;4.60;3.00;;;14.10;99.90;;;;;;5222130;28;20190;-50
2022/11/09 11:13:00;;;;;;;5.80;2.70;;;14.20;99.90;;;;;;5214458;28;20214;-53
2022/11/09 11:15:41;;;;;;;3.13;2.93;;;14.20;99.90;;;;;;5208326;28;20852;-54
2022/11/09 11:18:14;;;;;;;3.00;2.80;;;14.20;99.90;;;;;;5215578;28;20449;-50
2022/11/09 11:20:46;;;;;;;4.80;2.57;;;14.30;99.90;;;;;;5221099;28;20417;-49
2022/11/09 11:23:24;;;;;;;3.70;2.63;;;14.30;99.90;;;;;;5212502;28;20475;-51
2022/11/09 11:26:14;;;;;;;9.10;2.40;;;14.40;99.90;;;;;;5207704;28;20944;-52
2022/11/09 11:29:27;;;;;;;2.60;2.50;;;14.50;99.90;;;;;;5226056;28;20559;-52
2022/11/09 11:31:57;;;;;;;2.93;2.73;;;14.50;99.90;;;;;;5197672;28;20483;-52
2022/11/09 11:34:28;;;;;;;3.60;2.27;;;14.70;99.90;;;;;;5219718;28;20461;-53
2022/11/09 11:37:22;;;;;;;2.70;2.17;;;14.70;99.90;;;;;;5216708;28;20179;-51
2022/11/09 11:40:02;;;;;;;2.63;2.43;;;14.80;99.90;;;;;;5213178;28;20429;-52
2022/11/09 11:42:51;;;;;;;6.83;2.33;;;14.90;99.90;;;;;;5229591;28;20457;-53
2022/11/09 11:45:34;;;;;;;3.40;2.93;;;15.00;99.90;;;;;;5231327;28;20432;-52
2022/11/09 11:48:10;;;;;;;3.93;3.33;;;15.10;99.90;;;;;;5231715;28;20425;-52
2022/11/09 11:51:03;;;;;;;2.60;2.40;;;15.10;99.90;;;;;;5214626;28;20436;-51
2022/11/09 11:53:54;;;;;;;2.83;2.10;;;15.20;99.90;;;;;;5227747;28;20473;-52
2022/11/09 11:56:41;;;;;;;2.53;2.40;;;15.10;99.90;;;;;;5211889;28;20466;-53
2022/11/09 11:59:34;;;;;;;9.10;2.60;;;15.10;99.90;;;;;;5228358;28;20427;-53
2022/11/09 12:02:28;;;;;;;2.23;2.13;;;15.20;99.90;;;;;;5213345;28;20475;-52
2022/11/09 12:04:59;;;;;;;4.43;2.60;;;15.30;99.90;;;;;;5219967;28;20413;-51
2022/11/09 12:07:42;;;;;;;4.07;2.40;;;15.30;99.90;;;;;;5232100;28;20747;-52
2022/11/09 12:10:50;;;;;;;2.60;2.40;;;15.40;99.90;;;;;;5229487;28;20452;-51
2022/11/09 12:14:05;;;;;;;2.57;2.33;;;15.60;99.90;;;;;;5223935;28;21007;-51
2022/11/09 12:16:52;;;;;;;2.83;2.63;;;15.60;99.90;;;;;;5225089;28;20425;-53
2022/11/09 12:19:46;;;;;;;2.23;2.03;;;15.70;99.90;;;;;;5222977;28;20445;-51
2022/11/09 12:22:34;;;;;;;1.33;1.33;;;15.70;99.90;;;;;;5224124;28;20793;-53
2022/11/09 12:25:50;;;;;;;2.63;1.50;;;15.60;99.90;;;;;;5230347;28;20433;-52
2022/11/09 12:28:57;;;;;;;2.37;2.17;;;15.80;99.90;;;;;;5184544;28;20443;-53
2022/11/09 12:31:48;;;;;;;2.23;2.13;;;15.90;99.90;;;;;;5228501;28;20486;-51
2022/11/09 12:34:42;;;;;;;1.87;1.77;;;15.80;99.90;;;;;;5214470;28;20867;-52
2022/11/09 12:37:19;;;;;;;2.90;2.67;;;15.80;99.90;;;;;;5204489;28;20527;-50
2022/11/09 12:39:52;;;;;;;5.20;2.27;;;16.00;99.90;;;;;;5214502;28;20530;-51
2022/11/09 12:42:32;;;;;;;2.20;2.10;;;16.10;99.90;;;;;;5221841;28;20461;-53
2022/11/09 12:45:22;;;;;;;1.97;1.87;;;15.90;99.90;;;;;;5199110;28;20823;-52
2022/11/09 12:47:54;;;;;;;1.97;1.80;;;15.80;99.90;;;;;;5223391;28;20793;-52
2022/11/09 12:50:26;;;;;;;2.40;2.20;;;15.50;99.90;;;;;;5212394;28;20483;-50
2022/11/09 12:53:00;;;;;;;2.07;1.90;;;15.50;99.90;;;;;;5231042;28;20439;-53
2022/11/09 12:56:03;;;;;;;3.40;3.10;;;15.50;99.90;;;;;;5221508;28;20526;-53
2022/11/09 12:58:36;;;;;;;4.57;2.47;;;15.70;99.90;;;;;;5197284;28;20483;-53
2022/11/09 13:01:12;;;;;;;3.83;2.07;;;15.70;99.90;;;;;;5218485;28;20433;-53
2022/11/09 13:03:57;;;;;;;4.53;2.20;;;15.60;99.90;;;;;;5199897;28;20497;-52
2022/11/09 13:06:32;;;;;;;4.97;1.90;;;15.50;99.90;;;;;;5227531;28;20575;-51
2022/11/09 13:09:14;;;;;;;1.97;1.87;;;15.40;99.90;;;;;;5218286;28;20448;-51
2022/11/09 13:11:48;;;;;;;2.00;1.90;;;15.30;99.90;;;;;;5223153;28;20457;-53
2022/11/09 13:14:22;;;;;;;2.37;2.27;;;15.10;99.90;;;;;;5226967;28;20804;-52
2022/11/09 13:16:54;;;;;;;1.80;1.70;;;15.00;99.90;;;;;;5225474;28;20515;-53
2022/11/09 13:19:34;;;;;;;1.60;1.50;;;14.90;99.90;;;;;;5220782;28;20441;-52
2022/11/09 13:22:34;;;;;;;9.70;2.10;;;14.80;99.90;;;;;;5221120;28;20491;-52
2022/11/09 13:25:49;;;;;;;8.53;1.97;;;14.80;99.90;;;;;;5215801;28;20448;-53
2022/11/09 13:28:29;;;;;;;2.30;1.80;;;14.70;99.90;;;;;;5225154;28;20437;-52
2022/11/09 13:31:00;;;;;;;1.67;1.60;;;14.70;99.90;;;;;;5210594;28;20440;-52